createdAt,value
2023-03-01T00:01:49.351Z,6.85
2023-03-01T00:04:17.875Z,6.13
2023-03-01T00:06:49.488Z,6.90
2023-03-01T00:09:17.934Z,6.97
2023-03-01T00:11:46.711Z,6.55
2023-03-01T00:14:17.440Z,6.70
2023-03-01T00:16:46.416Z,6.30
2023-03-01T00:19:18.315Z,6.07
2023-03-01T00:21:47.529Z,7.67
2023-03-01T00:24:16.053Z,7.38
2023-03-01T00:26:44.904Z,6.40
2023-03-01T00:29:13.238Z,7.32
2023-03-01T00:31:41.793Z,6.18
2023-03-01T00:34:10.833Z,6.75
2023-03-01T00:36:39.611Z,7.28
2023-03-01T00:39:13.067Z,6.68
2023-03-01T00:41:42.329Z,6.22
2023-03-01T00:44:10.992Z,6.60
2023-03-01T00:46:39.640Z,6.88
2023-03-01T00:49:08.136Z,6.55
2023-03-01T00:51:36.845Z,7.15
2023-03-01T00:54:05.286Z,6.72
2023-03-01T00:56:34.400Z,7.85
2023-03-01T00:59:03.390Z,6.68
2023-03-01T01:01:32.416Z,7.47
2023-03-01T01:04:03.871Z,7.38
2023-03-01T01:06:45.831Z,7.95
2023-03-01T01:09:19.709Z,7.13
2023-03-01T01:11:51.218Z,8.07
2023-03-01T01:14:19.972Z,7.40
2023-03-01T01:16:48.948Z,8.00
2023-03-01T01:19:17.594Z,7.72
2023-03-01T01:21:46.508Z,8.23
2023-03-01T01:24:15.217Z,7.97
2023-03-01T01:26:44.407Z,8.32
2023-03-01T01:29:13.100Z,7.80
2023-03-01T01:31:42.843Z,8.27
2023-03-01T01:34:17.086Z,8.80
2023-03-01T01:36:50.044Z,7.72
2023-03-01T01:39:18.485Z,8.30
2023-03-01T01:41:47.248Z,8.50
2023-03-01T01:44:22.260Z,9.25
2023-03-01T01:47:06.519Z,8.90
2023-03-01T01:49:38.777Z,8.05
2023-03-01T01:52:28.506Z,9.02
2023-03-01T01:55:08.311Z,8.57
2023-03-01T01:57:46.189Z,8.60
2023-03-01T02:00:21.527Z,8.63
2023-03-01T02:02:53.277Z,8.98
2023-03-01T02:05:28.010Z,8.43
2023-03-01T02:07:57.509Z,7.82
2023-03-01T02:10:25.848Z,8.27
2023-03-01T02:12:54.589Z,9.05
2023-03-01T02:15:24.459Z,8.60
2023-03-01T02:17:53.577Z,8.60
2023-03-01T02:20:24.748Z,8.68
2023-03-01T02:22:53.482Z,9.27
2023-03-01T02:26:07.568Z,9.57
2023-03-01T02:28:38.030Z,8.68
2023-03-01T02:31:26.584Z,8.77
2023-03-01T02:33:55.538Z,9.13
2023-03-01T02:36:31.538Z,9.30
2023-03-01T02:39:01.317Z,9.52
2023-03-01T02:41:32.299Z,10.00
2023-03-01T02:44:01.419Z,10.30
2023-03-01T02:46:31.210Z,9.10
2023-03-01T02:49:00.447Z,9.85
2023-03-01T02:51:36.034Z,9.52
2023-03-01T02:54:30.102Z,9.02
2023-03-01T02:56:58.644Z,9.50
2023-03-01T02:59:32.460Z,9.35
2023-03-01T03:04:30.850Z,8.55
2023-03-01T03:06:59.751Z,9.68
2023-03-01T03:09:29.601Z,10.18
2023-03-01T03:11:58.621Z,9.90
2023-03-01T03:14:27.671Z,10.15
2023-03-01T03:16:56.341Z,10.02
2023-03-01T03:19:25.132Z,9.13
2023-03-01T03:21:53.692Z,9.70
2023-03-01T03:24:22.340Z,9.45
2023-03-01T03:26:50.721Z,9.20
2023-03-01T03:29:19.439Z,9.82
2023-03-01T03:31:47.924Z,9.50
2023-03-01T03:34:19.251Z,9.75
2023-03-01T03:36:47.670Z,9.70
2023-03-01T03:39:16.338Z,9.45
2023-03-01T03:41:44.641Z,10.10
2023-03-01T03:44:13.239Z,9.13
2023-03-01T03:46:41.581Z,9.40
2023-03-01T03:49:10.219Z,10.35
2023-03-01T03:51:38.579Z,8.55
2023-03-01T03:54:07.432Z,9.18
2023-03-01T03:56:36.189Z,9.45
2023-03-01T03:59:04.810Z,9.77
2023-03-01T04:01:33.308Z,9.85
2023-03-01T04:04:05.353Z,9.05
2023-03-01T04:06:33.989Z,9.55
2023-03-01T04:09:03.586Z,10.23
2023-03-01T04:11:32.442Z,10.60
2023-03-01T04:14:01.398Z,9.13
2023-03-01T04:16:30.227Z,8.80
2023-03-01T04:19:01.017Z,9.40
2023-03-01T04:21:29.418Z,8.98
2023-03-01T04:23:58.226Z,9.80
2023-03-01T04:26:26.569Z,9.50
2023-03-01T04:28:55.269Z,10.05
2023-03-01T04:31:23.960Z,9.77
2023-03-01T04:33:54.862Z,10.13
2023-03-01T04:36:28.895Z,9.07
2023-03-01T04:38:57.913Z,9.18
2023-03-01T04:41:26.679Z,8.38
2023-03-01T04:43:55.448Z,9.05
2023-03-01T04:46:23.963Z,9.50
2023-03-01T04:48:52.740Z,10.50
2023-03-01T04:51:21.138Z,9.82
2023-03-01T04:53:50.060Z,9.85
2023-03-01T04:56:24.289Z,9.30
2023-03-01T04:58:55.384Z,9.95
2023-03-01T05:01:23.699Z,9.38
2023-03-01T05:03:52.794Z,8.68
2023-03-01T05:06:22.139Z,9.95
2023-03-01T05:08:50.977Z,9.55
2023-03-01T05:11:19.319Z,9.45
2023-03-01T05:13:48.180Z,9.15
2023-03-01T05:16:18.063Z,8.98
2023-03-01T05:18:47.218Z,7.88
2023-03-01T05:21:17.464Z,8.77
2023-03-01T05:23:48.035Z,9.18
2023-03-01T05:26:34.040Z,8.82
2023-03-01T05:29:02.785Z,7.88
2023-03-01T05:31:32.156Z,8.43
2023-03-01T05:34:00.951Z,8.43
2023-03-01T05:36:29.557Z,8.45
2023-03-01T05:38:58.789Z,8.80
2023-03-01T05:41:27.172Z,8.20
2023-03-01T05:43:55.888Z,8.57
2023-03-01T05:46:25.742Z,8.98
2023-03-01T05:48:54.466Z,9.18
2023-03-01T05:51:23.406Z,7.55
2023-03-01T05:53:52.089Z,8.38
2023-03-01T05:56:23.436Z,7.32
2023-03-01T05:58:52.281Z,7.78
2023-03-01T06:01:20.665Z,8.18
2023-03-01T06:03:49.733Z,7.95
2023-03-01T06:06:18.112Z,7.30
2023-03-01T06:08:46.970Z,7.82
2023-03-01T06:11:15.380Z,7.88
2023-03-01T06:13:45.122Z,8.07
2023-03-01T06:16:14.057Z,8.15
2023-03-01T06:18:42.960Z,7.95
2023-03-01T06:21:11.382Z,6.78
2023-03-01T06:23:39.972Z,8.25
2023-03-01T06:26:08.917Z,7.75
2023-03-01T06:28:37.935Z,8.15
2023-03-01T06:31:09.968Z,7.13
2023-03-01T06:33:38.816Z,8.23
2023-03-01T06:36:08.144Z,7.85
2023-03-01T06:38:36.991Z,8.43
2023-03-01T06:41:05.512Z,8.13
2023-03-01T06:43:34.515Z,8.50
2023-03-01T06:46:08.141Z,7.38
2023-03-01T06:48:36.927Z,7.85
2023-03-01T06:51:05.491Z,7.95
2023-03-01T06:53:34.492Z,8.43
2023-03-01T06:56:02.732Z,8.02
2023-03-01T06:58:31.613Z,7.63
2023-03-01T07:01:00.090Z,8.80
2023-03-01T07:03:28.825Z,7.55
2023-03-01T07:05:57.340Z,9.02
2023-03-01T07:08:26.113Z,8.65
2023-03-01T07:10:58.847Z,7.65
2023-03-01T07:13:27.708Z,7.65
2023-03-01T07:15:56.088Z,7.82
2023-03-01T07:18:25.007Z,8.13
2023-03-01T07:20:53.493Z,7.90
2023-03-01T07:23:22.469Z,8.20
2023-03-01T07:25:56.918Z,8.93
2023-03-01T07:28:25.839Z,8.40
2023-03-01T07:30:54.376Z,8.88
2023-03-01T07:33:23.107Z,8.63
2023-03-01T07:36:01.088Z,8.38
2023-03-01T07:38:30.302Z,9.65
2023-03-01T07:41:03.139Z,8.43
2023-03-01T07:43:32.022Z,10.60
2023-03-01T07:46:02.084Z,7.90
2023-03-01T07:48:31.465Z,8.93
2023-03-01T07:51:05.056Z,8.93
2023-03-01T07:53:35.420Z,8.95
2023-03-01T07:56:12.206Z,9.95
2023-03-01T07:58:43.735Z,9.70
2023-03-01T08:01:15.390Z,10.13
2023-03-01T08:03:44.929Z,9.13
2023-03-01T08:06:15.197Z,9.70
2023-03-01T08:08:44.160Z,10.43
2023-03-01T08:11:13.997Z,9.45
2023-03-01T08:13:43.677Z,10.02
2023-03-01T08:16:14.771Z,11.77
2023-03-01T08:18:44.364Z,9.68
2023-03-01T08:21:15.421Z,10.23
2023-03-01T08:23:44.437Z,10.43
2023-03-01T08:26:19.668Z,10.77
2023-03-01T08:28:49.545Z,9.98
2023-03-01T08:31:40.417Z,11.57
2023-03-01T08:34:12.690Z,10.15
2023-03-01T08:36:43.611Z,8.95
2023-03-01T08:39:14.587Z,9.85
2023-03-01T08:41:43.237Z,9.68
2023-03-01T08:44:13.177Z,10.20
2023-03-01T08:46:42.663Z,10.93
2023-03-01T08:49:15.448Z,10.60
2023-03-01T08:51:44.850Z,9.85
2023-03-01T08:54:19.765Z,9.85
2023-03-01T08:56:48.326Z,9.30
2023-03-01T08:59:18.443Z,8.68
2023-03-01T09:01:47.041Z,11.20
2023-03-01T09:04:16.489Z,10.82
2023-03-01T09:06:44.999Z,9.77
2023-03-01T09:09:18.443Z,10.32
2023-03-01T09:14:16.657Z,10.82
2023-03-01T09:16:45.219Z,9.93
2023-03-01T09:19:14.105Z,10.00
2023-03-01T09:21:42.626Z,9.85
2023-03-01T09:24:15.648Z,10.05
2023-03-01T09:26:48.857Z,10.02
2023-03-01T09:29:19.153Z,9.40
2023-03-01T09:31:47.630Z,9.45
2023-03-01T09:34:20.465Z,9.38
2023-03-01T09:36:48.821Z,8.95
2023-03-01T09:39:19.058Z,8.90
2023-03-01T09:42:05.400Z,8.90
2023-03-01T09:45:07.964Z,9.32
2023-03-01T09:47:37.333Z,10.23
2023-03-01T09:50:18.578Z,8.95
2023-03-01T09:52:52.334Z,9.65
2023-03-01T09:55:29.464Z,10.40
2023-03-01T09:58:22.902Z,10.48
2023-03-01T10:00:51.701Z,10.57
2023-03-01T10:03:38.406Z,10.38
2023-03-01T10:06:34.078Z,9.23
2023-03-01T10:09:18.045Z,9.27
2023-03-01T10:14:38.495Z,10.35
2023-03-01T10:17:36.406Z,10.38
2023-03-01T10:20:48.126Z,10.00
2023-03-01T10:23:16.804Z,10.30
2023-03-01T10:26:25.502Z,9.88
2023-03-01T10:29:03.733Z,9.82
2023-03-01T10:31:52.389Z,8.80
2023-03-01T10:34:28.627Z,9.82
2023-03-01T10:37:11.099Z,9.70
2023-03-01T10:39:56.255Z,10.38
2023-03-01T10:42:32.550Z,9.70
2023-03-01T10:45:35.995Z,10.27
2023-03-01T10:48:14.587Z,10.35
2023-03-01T10:50:46.336Z,10.52
2023-03-01T10:53:35.923Z,9.88
2023-03-01T10:56:14.615Z,10.25
2023-03-01T10:59:04.657Z,9.57
2023-03-01T11:01:36.894Z,9.85
2023-03-01T11:04:08.412Z,10.15
2023-03-01T11:06:43.403Z,9.05
2023-03-01T11:09:25.773Z,9.95
2023-03-01T11:11:59.046Z,10.35
2023-03-01T11:14:31.888Z,10.70
2023-03-01T11:22:29.699Z,9.60
2023-03-01T11:25:09.293Z,11.23
2023-03-01T11:27:43.574Z,10.75
2023-03-01T11:33:13.072Z,10.02
2023-03-01T11:36:08.503Z,11.70
2023-03-01T11:38:37.475Z,10.60
2023-03-01T11:41:19.529Z,10.38
2023-03-01T11:43:55.729Z,9.90
2023-03-01T11:46:33.311Z,9.82
2023-03-01T11:49:26.752Z,10.00
2023-03-01T11:52:15.662Z,11.15
2023-03-01T11:55:30.049Z,10.88
2023-03-01T11:58:26.848Z,17.67
2023-03-01T12:01:25.557Z,14.25
2023-03-01T12:04:24.934Z,14.27
2023-03-01T13:01:16.542Z,12.05
2023-03-01T13:04:28.697Z,12.65
2023-03-01T13:07:12.063Z,11.00
2023-03-01T13:10:33.668Z,11.52
2023-03-01T13:13:26.199Z,11.18
2023-03-01T13:15:55.527Z,10.27
2023-03-01T13:18:24.482Z,10.63
2023-03-01T13:20:58.615Z,10.50
2023-03-01T13:23:37.771Z,10.60
2023-03-01T13:26:26.965Z,10.07
2023-03-01T13:28:58.514Z,10.00
2023-03-01T13:31:27.382Z,10.27
2023-03-01T13:33:57.382Z,10.45
2023-03-01T13:36:30.060Z,8.85
2023-03-01T13:39:04.165Z,10.02
2023-03-01T13:41:44.885Z,9.27
2023-03-01T13:44:40.079Z,8.70
2023-03-01T13:47:09.644Z,8.23
2023-03-01T13:49:59.811Z,8.10
2023-03-01T13:52:55.723Z,8.65
2023-03-01T13:55:43.125Z,8.52
2023-03-01T13:58:22.718Z,8.52
2023-03-01T14:01:04.712Z,7.53
2023-03-01T14:03:35.310Z,7.22
2023-03-01T14:06:15.419Z,8.30
2023-03-01T14:08:47.042Z,7.88
2023-03-01T14:11:26.178Z,8.00
2023-03-01T14:14:19.398Z,7.57
2023-03-01T14:17:24.875Z,7.40
2023-03-01T14:20:21.639Z,7.10
2023-03-01T14:22:53.106Z,7.53
2023-03-01T14:25:31.273Z,8.27
2023-03-01T14:28:14.785Z,8.27
2023-03-01T14:30:57.504Z,8.55
2023-03-01T14:33:42.315Z,7.50
2023-03-01T14:36:12.847Z,7.35
2023-03-01T14:38:46.352Z,8.48
2023-03-01T14:41:26.923Z,6.78
2023-03-01T14:44:08.182Z,6.90
2023-03-01T14:46:39.577Z,7.22
2023-03-01T14:49:16.886Z,7.70
2023-03-01T14:52:03.586Z,6.88
2023-03-01T14:54:45.576Z,6.60
2023-03-01T14:57:23.112Z,7.15
2023-03-01T14:59:57.067Z,7.10
2023-03-01T15:02:29.300Z,5.90
2023-03-01T15:05:01.924Z,6.90
2023-03-01T15:07:35.558Z,7.03
2023-03-01T15:10:06.505Z,7.35
2023-03-01T15:12:40.946Z,6.70
2023-03-01T15:15:48.421Z,5.80
2023-03-01T15:18:23.366Z,6.28
2023-03-01T15:20:51.863Z,6.32
2023-03-01T15:23:28.906Z,5.85
2023-03-01T15:25:57.756Z,6.43
2023-03-01T15:28:44.571Z,6.18
2023-03-01T15:31:24.659Z,6.13
2023-03-01T15:33:53.543Z,5.72
2023-03-01T15:36:44.343Z,6.00
2023-03-01T15:39:38.693Z,5.13
2023-03-01T15:42:13.930Z,6.25
2023-03-01T15:44:48.696Z,5.65
2023-03-01T15:47:51.336Z,5.95
2023-03-01T15:50:28.941Z,6.37
2023-03-01T15:52:58.015Z,6.18
2023-03-01T15:55:30.810Z,5.65
2023-03-01T15:58:24.077Z,5.85
2023-03-01T16:03:31.033Z,5.10
2023-03-01T16:05:59.927Z,5.38
2023-03-01T16:08:28.550Z,5.40
2023-03-01T16:10:57.513Z,4.53
2023-03-01T16:13:28.338Z,5.18
2023-03-01T16:15:58.753Z,5.50
2023-03-01T16:18:27.253Z,4.88
2023-03-01T16:20:56.519Z,5.18
2023-03-01T16:23:26.262Z,5.45
2023-03-01T16:25:55.088Z,4.15
2023-03-01T16:28:23.570Z,5.22
2023-03-01T16:30:52.631Z,4.40
2023-03-01T16:33:28.995Z,4.22
2023-03-01T16:36:11.172Z,4.72
2023-03-01T16:38:39.904Z,4.28
2023-03-01T16:41:17.369Z,5.32
2023-03-01T16:43:47.766Z,3.97
2023-03-01T16:46:29.729Z,4.75
2023-03-01T16:48:58.421Z,4.68
2023-03-01T16:51:27.234Z,4.95
2023-03-01T16:53:55.863Z,4.85
2023-03-01T16:56:24.806Z,4.25
2023-03-01T16:58:53.321Z,4.70
2023-03-01T17:01:25.658Z,4.10
2023-03-01T17:03:54.420Z,3.90
2023-03-01T17:06:24.905Z,4.60
2023-03-01T17:08:53.448Z,4.40
2023-03-01T17:11:22.519Z,4.10
2023-03-01T17:13:51.246Z,4.47
2023-03-01T17:16:21.354Z,5.32
2023-03-01T17:18:50.308Z,5.38
2023-03-01T17:21:19.184Z,5.03
2023-03-01T17:23:48.278Z,5.25
2023-03-01T17:26:17.775Z,4.85
2023-03-01T17:28:52.631Z,4.70
2023-03-01T17:31:22.051Z,4.53
2023-03-01T17:33:51.420Z,4.72
2023-03-01T17:36:20.289Z,5.28
2023-03-01T17:38:50.054Z,5.38
2023-03-01T17:41:19.720Z,5.00
2023-03-01T17:43:48.470Z,4.45
2023-03-01T17:46:17.627Z,4.93
2023-03-01T17:48:46.260Z,4.10
2023-03-01T17:51:15.251Z,5.15
2023-03-01T17:53:43.912Z,4.38
2023-03-01T17:56:12.992Z,4.78
2023-03-01T17:58:41.598Z,4.45
2023-03-01T18:01:13.009Z,4.00
2023-03-01T18:03:42.354Z,3.95
2023-03-01T18:06:17.877Z,4.63
2023-03-01T18:08:46.820Z,4.38
2023-03-01T18:11:16.009Z,4.10
2023-03-01T18:13:45.572Z,4.28
2023-03-01T18:16:20.441Z,4.13
2023-03-01T18:18:53.726Z,5.38
2023-03-01T18:21:23.821Z,4.70
2023-03-01T18:23:52.752Z,4.47
2023-03-01T18:26:23.020Z,4.95
2023-03-01T18:28:52.562Z,4.70
2023-03-01T18:31:22.924Z,4.97
2023-03-01T18:33:55.273Z,3.78
2023-03-01T18:36:30.420Z,4.60
2023-03-01T18:38:59.348Z,4.50
2023-03-01T18:41:28.622Z,4.72
2023-03-01T18:43:57.728Z,4.43
2023-03-01T18:46:27.261Z,3.83
2023-03-01T18:48:56.003Z,4.07
2023-03-01T18:51:27.323Z,4.25
2023-03-01T18:53:58.835Z,4.50
2023-03-01T18:56:30.077Z,4.27
2023-03-01T18:59:00.570Z,4.13
2023-03-01T19:01:30.918Z,3.47
2023-03-01T19:03:59.890Z,4.53
2023-03-01T19:06:34.794Z,4.10
2023-03-01T19:09:04.045Z,3.92
2023-03-01T19:11:33.826Z,3.78
2023-03-01T19:14:02.521Z,3.97
2023-03-01T19:16:32.936Z,4.60
2023-03-01T19:19:03.410Z,5.07
2023-03-01T19:21:32.868Z,4.60
2023-03-01T19:24:02.735Z,4.43
2023-03-01T19:26:32.396Z,3.88
2023-03-01T19:29:01.485Z,4.45
2023-03-01T19:31:31.220Z,4.07
2023-03-01T19:34:10.315Z,3.65
2023-03-01T19:36:42.926Z,4.82
2023-03-01T19:39:13.994Z,4.05
2023-03-01T19:41:43.847Z,4.90
2023-03-01T19:44:12.866Z,4.60
2023-03-01T19:46:42.073Z,4.15
2023-03-01T19:49:10.692Z,4.28
2023-03-01T19:51:39.674Z,5.03
2023-03-01T19:54:10.042Z,4.30
2023-03-01T19:56:40.887Z,4.13
2023-03-01T19:59:09.497Z,4.20
2023-03-01T20:01:42.646Z,3.42
2023-03-01T20:04:11.606Z,3.85
2023-03-01T20:06:41.797Z,3.92
2023-03-01T20:09:21.540Z,3.92
2023-03-01T20:11:51.782Z,3.65
2023-03-01T20:14:23.600Z,3.97
2023-03-01T20:16:53.113Z,4.45
2023-03-01T20:19:22.058Z,4.35
2023-03-01T20:21:51.918Z,3.58
2023-03-01T20:24:21.488Z,3.30
2023-03-01T20:26:51.600Z,4.18
2023-03-01T20:29:20.375Z,3.78
2023-03-01T20:31:50.188Z,3.13
2023-03-01T20:34:20.425Z,3.63
2023-03-01T20:36:50.310Z,3.63
2023-03-01T20:39:20.013Z,3.97
2023-03-01T20:41:50.443Z,3.70
2023-03-01T20:44:20.220Z,3.63
2023-03-01T20:46:52.014Z,3.88
2023-03-01T20:49:22.941Z,3.60
2023-03-01T20:51:55.951Z,3.05
2023-03-01T20:54:25.880Z,3.40
2023-03-01T20:56:55.755Z,3.60
2023-03-01T20:59:24.795Z,3.53
2023-03-01T21:01:54.277Z,3.60
2023-03-01T21:04:23.432Z,3.65
2023-03-01T21:06:53.486Z,3.72
2023-03-01T21:09:23.682Z,2.90
2023-03-01T21:11:52.726Z,2.90
2023-03-01T21:14:22.048Z,4.00
2023-03-01T21:16:51.322Z,3.25
2023-03-01T21:19:23.505Z,3.13
2023-03-01T21:21:53.777Z,3.53
2023-03-01T21:24:22.358Z,3.28
2023-03-01T21:26:51.146Z,3.45
2023-03-01T21:29:19.665Z,3.25
2023-03-01T21:31:48.555Z,3.72
2023-03-01T21:34:17.090Z,3.80
2023-03-01T21:36:46.021Z,4.25
2023-03-01T21:39:15.020Z,3.88
2023-03-01T21:41:43.819Z,4.65
2023-03-01T21:44:12.300Z,4.40
2023-03-01T21:46:41.534Z,4.95
2023-03-01T21:49:11.265Z,4.57
2023-03-01T21:51:40.256Z,5.13
2023-03-01T21:54:10.261Z,4.47
2023-03-01T21:56:39.813Z,5.20
2023-03-01T21:59:16.486Z,5.10
2023-03-01T22:01:45.549Z,4.95
2023-03-01T22:04:14.301Z,4.47
2023-03-01T22:06:45.280Z,5.38
2023-03-01T22:09:19.661Z,5.55
2023-03-01T22:12:02.818Z,5.50
2023-03-01T22:14:31.798Z,5.45
2023-03-01T22:17:00.715Z,5.03
2023-03-01T22:19:29.336Z,4.85
2023-03-01T22:21:58.150Z,4.80
2023-03-01T22:24:26.798Z,5.60
2023-03-01T22:26:55.734Z,4.82
2023-03-01T22:29:29.244Z,5.97
2023-03-01T22:31:58.709Z,4.93
2023-03-01T22:34:27.476Z,4.20
2023-03-01T22:36:56.693Z,5.07
2023-03-01T22:39:25.303Z,4.90
2023-03-01T22:41:54.653Z,5.15
2023-03-01T22:44:23.718Z,4.07
2023-03-01T22:46:52.683Z,5.28
2023-03-01T22:49:21.579Z,4.82
2023-03-01T22:51:50.682Z,4.43
2023-03-01T22:54:19.672Z,4.80
2023-03-01T22:56:48.716Z,5.10
2023-03-01T22:59:23.306Z,3.95
2023-03-01T23:01:53.008Z,5.13
2023-03-01T23:04:22.086Z,4.05
2023-03-01T23:06:50.975Z,4.78
2023-03-01T23:09:26.649Z,4.40
2023-03-01T23:11:55.754Z,4.75
2023-03-01T23:14:25.423Z,4.30
2023-03-01T23:16:54.398Z,5.40
2023-03-01T23:19:23.230Z,4.80
2023-03-01T23:21:54.568Z,4.70
2023-03-01T23:24:24.292Z,3.92
2023-03-01T23:26:55.863Z,4.05
2023-03-01T23:29:24.360Z,3.58
2023-03-01T23:31:56.106Z,3.65
2023-03-01T23:34:25.746Z,4.40
2023-03-01T23:36:55.076Z,3.83
2023-03-01T23:39:23.688Z,3.58
2023-03-01T23:41:52.454Z,3.83
2023-03-01T23:44:21.430Z,3.55
2023-03-01T23:46:50.819Z,4.28
2023-03-01T23:49:20.758Z,3.92
2023-03-01T23:51:49.743Z,3.80
2023-03-01T23:54:21.028Z,3.65
2023-03-01T23:56:50.300Z,3.28
2023-03-01T23:59:22.115Z,3.28
